Time;durP1;ratioP1;P1;durP2;ratioP2;P2;SDS_P1;SDS_P2;PMS_P1;PMS_P2;Temp;Humidity;BMP_temperature;BMP_pressure;BME280_temperature;BME280_humidity;BME280_pressure;Samples;Min_cycle;Max_cycle;Signal;HPM_P1;HPM_P2
2022/07/09 00:00:54;;;;;;;1.33;1.10;;;22.30;60.90;;;;;;4935545;29;20271;-72
2022/07/09 00:03:20;;;;;;;1.30;1.20;;;22.30;60.90;;;;;;4950846;29;20188;-72
2022/07/09 00:05:46;;;;;;;1.30;1.10;;;22.30;60.90;;;;;;4950638;28;20187;-72
2022/07/09 00:08:11;;;;;;;1.27;1.10;;;22.30;60.90;;;;;;4934842;29;20639;-73
2022/07/09 00:10:37;;;;;;;2.28;1.10;;;22.30;60.90;;;;;;4935193;29;20242;-72
2022/07/09 00:13:03;;;;;;;1.20;1.10;;;22.20;60.70;;;;;;4935403;29;20301;-71
2022/07/09 00:15:28;;;;;;;1.60;1.17;;;22.30;60.90;;;;;;4950460;28;20230;-72
2022/07/09 00:17:54;;;;;;;1.55;1.05;;;22.30;60.90;;;;;;4934460;28;20195;-72
2022/07/09 00:20:20;;;;;;;1.23;1.13;;;22.30;60.90;;;;;;4934820;28;20229;-72
2022/07/09 00:22:46;;;;;;;1.58;1.10;;;22.20;60.80;;;;;;4934364;29;20286;-72
2022/07/09 00:25:12;;;;;;;1.30;1.20;;;22.20;60.80;;;;;;4934651;29;20269;-72
2022/07/09 00:27:37;;;;;;;1.35;1.25;;;22.20;60.70;;;;;;4950587;28;20619;-72
2022/07/09 00:30:04;;;;;;;1.20;1.10;;;22.20;60.70;;;;;;4934413;28;20226;-72
2022/07/09 00:32:29;;;;;;;1.40;1.00;;;22.20;60.80;;;;;;4933599;29;20215;-72
2022/07/09 00:34:55;;;;;;;0.90;0.90;;;22.20;60.80;;;;;;4935509;29;20175;-72
2022/07/09 00:37:21;;;;;;;1.05;1.05;;;22.20;60.80;;;;;;4934415;28;20194;-72
2022/07/09 00:39:47;;;;;;;1.00;1.00;;;22.20;60.90;;;;;;4934143;28;20270;-72
2022/07/09 00:42:12;;;;;;;1.10;1.10;;;22.20;60.80;;;;;;4949848;29;20199;-72
2022/07/09 00:44:38;;;;;;;1.10;1.00;;;22.20;60.80;;;;;;4950122;28;20187;-72
2022/07/09 00:47:07;;;;;;;1.30;1.20;;;22.20;60.80;;;;;;4934216;28;20722;-72
2022/07/09 00:49:42;;;;;;;1.58;1.20;;;22.20;60.80;;;;;;4934250;29;20278;-72
2022/07/09 00:52:12;;;;;;;1.20;1.10;;;22.20;60.80;;;;;;4933491;29;20219;-72
2022/07/09 00:54:41;;;;;;;1.10;1.00;;;22.20;60.80;;;;;;4947917;29;20669;-72
2022/07/09 00:57:10;;;;;;;1.40;1.30;;;22.20;60.80;;;;;;4968896;28;20179;-72
2022/07/09 00:59:37;;;;;;;1.15;1.13;;;22.20;60.80;;;;;;4969384;28;20217;-72
2022/07/09 01:02:06;;;;;;;1.00;1.00;;;22.20;60.70;;;;;;4968909;28;20171;-72
2022/07/09 01:04:32;;;;;;;0.95;0.90;;;22.20;60.70;;;;;;4953393;28;20194;-72
2022/07/09 01:06:57;;;;;;;0.80;0.80;;;22.20;60.70;;;;;;4954279;28;20183;-72
2022/07/09 01:09:25;;;;;;;1.75;1.25;;;22.20;60.80;;;;;;4969140;28;20174;-71
2022/07/09 01:11:51;;;;;;;0.95;0.90;;;22.20;60.90;;;;;;4952456;28;20250;-72
2022/07/09 01:14:17;;;;;;;0.80;0.80;;;22.20;60.90;;;;;;4969265;28;20189;-72
2022/07/09 01:16:43;;;;;;;0.90;0.90;;;22.20;60.90;;;;;;4952910;29;20186;-72
2022/07/09 01:19:09;;;;;;;0.90;0.90;;;22.20;60.90;;;;;;4952803;28;20660;-72
2022/07/09 01:21:35;;;;;;;1.48;0.90;;;22.20;60.80;;;;;;4968456;28;20210;-72
2022/07/09 01:24:01;;;;;;;1.70;1.17;;;22.10;60.80;;;;;;4954800;28;20194;-72
2022/07/09 01:26:28;;;;;;;1.10;0.95;;;22.20;60.90;;;;;;4956983;28;20194;-72
2022/07/09 01:28:54;;;;;;;1.33;1.27;;;22.10;60.80;;;;;;4940809;28;20183;-73
2022/07/09 01:31:20;;;;;;;0.93;0.93;;;22.10;60.80;;;;;;4956427;28;20729;-72
2022/07/09 01:33:46;;;;;;;0.95;0.95;;;22.10;60.80;;;;;;4925081;28;20186;-72
2022/07/09 01:36:12;;;;;;;0.90;0.90;;;22.10;60.70;;;;;;4972889;28;20182;-72
2022/07/09 01:38:37;;;;;;;1.20;1.00;;;22.10;61.60;;;;;;4956835;28;20190;-72
2022/07/09 01:41:04;;;;;;;1.30;1.20;;;22.10;60.80;;;;;;4939883;28;20199;-72
2022/07/09 01:43:30;;;;;;;1.13;1.10;;;22.10;60.70;;;;;;4957686;28;20273;-72
2022/07/09 01:45:57;;;;;;;0.90;0.90;;;22.10;60.70;;;;;;4957616;28;20186;-72
2022/07/09 01:48:22;;;;;;;1.05;0.95;;;22.10;60.80;;;;;;4956330;28;20201;-72
2022/07/09 01:50:48;;;;;;;1.00;1.00;;;22.10;60.70;;;;;;4971893;28;20210;-72
2022/07/09 01:53:14;;;;;;;1.70;1.10;;;22.10;60.70;;;;;;4972364;28;20221;-72
2022/07/09 01:55:40;;;;;;;2.00;1.10;;;22.10;60.70;;;;;;4956239;28;20182;-72
2022/07/09 01:58:05;;;;;;;1.15;1.05;;;22.10;60.70;;;;;;4972338;28;20221;-72
2022/07/09 02:00:31;;;;;;;1.17;1.10;;;22.10;60.70;;;;;;4957308;28;20249;-71
2022/07/09 02:02:57;;;;;;;0.98;0.98;;;22.10;60.70;;;;;;4955536;28;20189;-71
2022/07/09 02:05:23;;;;;;;1.00;1.00;;;22.10;60.70;;;;;;4956014;28;20210;-72
2022/07/09 02:07:49;;;;;;;1.10;1.00;;;22.10;60.60;;;;;;4956014;28;20190;-72
2022/07/09 02:10:15;;;;;;;1.08;1.08;;;22.10;60.60;;;;;;4970886;28;20210;-72
2022/07/09 02:12:41;;;;;;;0.90;0.90;;;22.10;60.60;;;;;;4971225;28;20217;-71
2022/07/09 02:15:10;;;;;;;1.00;0.90;;;22.10;60.80;;;;;;4971913;28;20241;-72
2022/07/09 02:17:36;;;;;;;1.08;1.00;;;22.10;60.70;;;;;;4972121;28;20193;-72
2022/07/09 02:20:03;;;;;;;1.55;1.00;;;22.10;61.60;;;;;;4955525;28;20273;-72
2022/07/09 02:22:30;;;;;;;1.17;1.08;;;22.10;60.80;;;;;;4955121;29;20229;-72
2022/07/09 02:24:55;;;;;;;1.10;1.00;;;22.10;60.70;;;;;;4971993;28;20201;-72
2022/07/09 02:27:22;;;;;;;1.08;0.98;;;22.10;60.70;;;;;;4955522;28;20190;-71
2022/07/09 02:29:47;;;;;;;0.90;0.90;;;22.10;60.80;;;;;;4956692;28;20213;-72
2022/07/09 02:32:13;;;;;;;1.08;1.00;;;22.10;60.80;;;;;;4971368;28;20214;-72
2022/07/09 02:34:39;;;;;;;1.35;1.00;;;22.10;60.80;;;;;;4955245;28;20194;-72
2022/07/09 02:37:06;;;;;;;1.23;1.13;;;22.00;60.70;;;;;;4955435;28;20187;-72
2022/07/09 02:39:32;;;;;;;1.35;1.00;;;22.10;60.80;;;;;;4971411;28;20187;-71
2022/07/09 02:41:58;;;;;;;1.02;0.95;;;22.10;60.80;;;;;;4971055;28;20191;-72
2022/07/09 02:44:24;;;;;;;1.10;0.90;;;22.10;60.80;;;;;;4955396;28;20245;-72
2022/07/09 02:46:50;;;;;;;1.33;1.23;;;22.10;60.80;;;;;;4955704;28;20281;-72
2022/07/09 02:49:16;;;;;;;1.13;1.02;;;22.10;60.80;;;;;;4956403;28;20273;-73
2022/07/09 02:51:42;;;;;;;1.23;1.10;;;22.10;60.70;;;;;;4938711;29;20233;-72
2022/07/09 02:54:08;;;;;;;1.33;0.95;;;22.10;60.70;;;;;;4956324;28;20273;-72
2022/07/09 02:56:34;;;;;;;1.20;1.10;;;22.10;60.70;;;;;;4955426;28;20273;-72
2022/07/09 02:59:00;;;;;;;0.98;0.90;;;22.10;60.80;;;;;;4955493;29;20620;-72
2022/07/09 03:01:26;;;;;;;1.15;1.08;;;22.10;60.70;;;;;;4954660;28;20242;-72
2022/07/09 03:03:52;;;;;;;1.10;1.00;;;22.10;60.70;;;;;;4955143;28;20233;-72
2022/07/09 03:06:18;;;;;;;0.93;0.93;;;22.00;60.60;;;;;;4954901;29;20190;-72
2022/07/09 03:08:43;;;;;;;1.20;1.10;;;22.00;60.60;;;;;;4956321;28;20187;-72
2022/07/09 03:11:09;;;;;;;1.30;1.20;;;22.00;60.70;;;;;;4954130;29;20206;-71
2022/07/09 03:13:36;;;;;;;1.23;1.13;;;22.00;61.00;;;;;;4954843;28;20182;-72
2022/07/09 03:16:03;;;;;;;1.00;1.00;;;22.00;60.60;;;;;;4955074;29;20183;-71
2022/07/09 03:18:29;;;;;;;0.95;0.90;;;22.00;60.60;;;;;;4954486;28;20186;-72
2022/07/09 03:20:55;;;;;;;1.15;1.02;;;22.00;60.70;;;;;;4954001;28;20206;-72
2022/07/09 03:23:21;;;;;;;0.95;0.95;;;22.00;60.70;;;;;;4954583;28;20407;-72
2022/07/09 03:25:47;;;;;;;1.33;1.23;;;22.00;60.70;;;;;;4954496;28;20248;-72
2022/07/09 03:28:13;;;;;;;0.88;0.88;;;22.00;60.70;;;;;;4954541;28;20194;-71
2022/07/09 03:30:38;;;;;;;1.38;1.27;;;22.00;60.70;;;;;;4954446;28;20221;-72
2022/07/09 03:33:04;;;;;;;1.02;1.02;;;22.00;60.70;;;;;;4954136;29;20218;-72
2022/07/09 03:35:30;;;;;;;0.95;0.95;;;22.00;60.70;;;;;;4954466;28;20194;-72
2022/07/09 03:37:56;;;;;;;0.90;0.90;;;22.00;60.60;;;;;;4954593;28;20190;-72
2022/07/09 03:40:22;;;;;;;1.23;1.13;;;22.00;60.70;;;;;;4954215;28;20213;-72
2022/07/09 03:42:48;;;;;;;1.50;0.90;;;22.00;60.70;;;;;;4953773;28;20229;-72
2022/07/09 03:45:14;;;;;;;0.80;0.80;;;22.00;60.70;;;;;;4954254;28;20194;-72
2022/07/09 03:47:40;;;;;;;1.35;1.05;;;22.00;60.60;;;;;;4953755;28;20191;-72
2022/07/09 03:50:06;;;;;;;1.58;1.08;;;21.90;60.50;;;;;;4954060;28;20198;-72
2022/07/09 03:52:33;;;;;;;0.80;0.80;;;22.00;60.60;;;;;;4954735;28;20245;-71
2022/07/09 03:54:58;;;;;;;1.00;0.90;;;22.00;60.60;;;;;;4970378;28;20183;-72
2022/07/09 03:57:24;;;;;;;0.90;0.90;;;22.00;60.60;;;;;;4953983;29;20189;-72
2022/07/09 03:59:50;;;;;;;0.95;0.90;;;22.00;60.60;;;;;;4953813;28;20218;-72
2022/07/09 04:02:16;;;;;;;1.00;0.95;;;22.00;60.60;;;;;;4953351;29;20187;-72
2022/07/09 04:04:43;;;;;;;1.30;1.20;;;22.00;60.60;;;;;;4953796;29;20198;-72
2022/07/09 04:07:10;;;;;;;1.42;1.27;;;22.00;60.50;;;;;;4953860;29;20186;-72
2022/07/09 04:09:36;;;;;;;1.48;0.90;;;22.00;60.60;;;;;;4953806;29;20186;-71
2022/07/09 04:12:02;;;;;;;1.20;1.00;;;22.00;60.60;;;;;;4953210;28;20214;-72
2022/07/09 04:14:28;;;;;;;1.17;1.10;;;22.00;60.50;;;;;;4953788;29;20277;-72
2022/07/09 04:16:53;;;;;;;0.90;0.90;;;22.00;60.70;;;;;;4954750;29;20198;-72
2022/07/09 04:19:19;;;;;;;1.23;1.13;;;21.90;60.60;;;;;;4939064;28;20188;-72
2022/07/09 04:21:45;;;;;;;0.80;0.80;;;22.00;60.70;;;;;;4952587;29;20210;-72
2022/07/09 04:24:11;;;;;;;1.00;1.00;;;21.90;60.60;;;;;;4969580;28;20194;-72
2022/07/09 04:26:36;;;;;;;0.98;0.90;;;21.90;60.60;;;;;;4953315;28;20197;-71
2022/07/09 04:29:02;;;;;;;1.15;1.05;;;21.90;60.60;;;;;;4953767;28;20194;-72
2022/07/09 04:31:28;;;;;;;1.20;1.10;;;22.00;60.70;;;;;;4937000;29;20210;-72
2022/07/09 04:33:54;;;;;;;0.95;0.95;;;22.00;60.70;;;;;;4953436;28;20193;-72
2022/07/09 04:36:19;;;;;;;1.10;1.00;;;22.00;60.70;;;;;;4953705;29;20187;-72
2022/07/09 04:38:45;;;;;;;0.90;0.90;;;21.90;60.70;;;;;;4953552;28;20186;-72
2022/07/09 04:41:11;;;;;;;1.30;1.30;;;21.90;60.70;;;;;;4953129;28;20206;-71
2022/07/09 04:43:37;;;;;;;0.90;0.90;;;22.00;60.80;;;;;;4953660;28;20269;-72
2022/07/09 04:46:03;;;;;;;1.00;1.00;;;22.00;60.80;;;;;;4954434;28;20214;-72
2022/07/09 04:48:29;;;;;;;1.10;1.00;;;22.00;60.80;;;;;;4969581;28;20197;-72
2022/07/09 04:50:55;;;;;;;1.10;1.00;;;22.00;60.70;;;;;;4952807;29;20217;-71
2022/07/09 04:53:21;;;;;;;1.00;0.93;;;21.90;60.60;;;;;;4969280;28;20218;-72
2022/07/09 04:55:47;;;;;;;1.42;1.10;;;21.90;60.80;;;;;;4953109;28;20591;-72
2022/07/09 04:58:13;;;;;;;0.80;0.80;;;21.90;60.70;;;;;;4952961;28;20241;-72
2022/07/09 05:00:38;;;;;;;1.23;1.15;;;21.90;60.70;;;;;;4953152;28;20229;-72
2022/07/09 05:03:05;;;;;;;0.90;0.90;;;21.90;60.70;;;;;;4969031;28;20190;-72
2022/07/09 05:05:31;;;;;;;1.52;1.10;;;21.90;60.70;;;;;;4953202;29;20175;-72
2022/07/09 05:07:56;;;;;;;1.20;1.10;;;21.90;60.70;;;;;;4953352;28;20198;-72
2022/07/09 05:10:22;;;;;;;2.00;1.10;;;22.00;60.80;;;;;;4954198;28;20229;-71
2022/07/09 05:12:48;;;;;;;1.17;1.10;;;21.90;60.70;;;;;;4953586;28;20294;-72
2022/07/09 05:15:14;;;;;;;1.20;1.20;;;21.90;60.70;;;;;;4954163;28;20197;-72
2022/07/09 05:17:41;;;;;;;1.55;1.30;;;21.90;60.70;;;;;;4969064;28;20277;-72
2022/07/09 05:20:09;;;;;;;1.05;1.00;;;21.90;60.70;;;;;;4953774;28;20208;-72
2022/07/09 05:22:36;;;;;;;0.98;0.98;;;21.90;60.70;;;;;;4968749;28;20252;-71
2022/07/09 05:25:04;;;;;;;0.80;0.80;;;21.90;60.80;;;;;;4952867;29;20194;-71
2022/07/09 05:27:30;;;;;;;1.00;1.00;;;21.90;60.80;;;;;;4952939;28;20218;-71
2022/07/09 05:29:56;;;;;;;1.40;1.20;;;21.90;60.80;;;;;;4952978;28;20237;-71
2022/07/09 05:32:22;;;;;;;1.17;1.02;;;21.90;60.80;;;;;;4952211;28;20206;-72
2022/07/09 05:34:48;;;;;;;1.13;1.00;;;21.90;60.80;;;;;;4952812;29;20285;-72
2022/07/09 05:37:14;;;;;;;1.13;1.02;;;21.90;60.80;;;;;;4952956;29;20202;-71
2022/07/09 05:39:41;;;;;;;1.08;1.08;;;21.90;60.80;;;;;;4953983;28;20179;-72
2022/07/09 05:42:06;;;;;;;1.20;1.10;;;21.90;60.80;;;;;;4952517;29;20191;-72
2022/07/09 05:44:32;;;;;;;1.10;1.10;;;21.90;60.70;;;;;;4952665;28;20202;-72
2022/07/09 05:46:58;;;;;;;1.20;1.10;;;22.00;60.90;;;;;;4952699;28;20195;-72
2022/07/09 05:49:25;;;;;;;1.05;1.05;;;22.00;60.80;;;;;;4952649;29;20221;-72
2022/07/09 05:51:51;;;;;;;1.30;1.20;;;21.90;60.80;;;;;;4952485;28;20218;-72
2022/07/09 05:54:17;;;;;;;1.10;1.00;;;22.00;60.90;;;;;;4968860;28;20195;-72
2022/07/09 05:56:43;;;;;;;1.00;1.00;;;22.00;61.00;;;;;;4953566;28;20181;-72
2022/07/09 05:59:09;;;;;;;1.05;0.85;;;22.00;61.00;;;;;;4952651;29;20186;-72
2022/07/09 06:01:42;;;;;;;1.88;1.30;;;21.90;60.90;;;;;;4968374;28;20225;-72
2022/07/09 06:04:09;;;;;;;0.98;0.98;;;22.00;60.90;;;;;;4968858;28;20175;-72
2022/07/09 06:06:35;;;;;;;0.98;0.85;;;22.00;60.90;;;;;;4954070;28;20289;-72
2022/07/09 06:09:01;;;;;;;1.20;1.10;;;22.00;60.90;;;;;;4953769;28;20200;-72
2022/07/09 06:11:27;;;;;;;1.25;1.23;;;21.90;60.90;;;;;;4971447;28;20285;-72
2022/07/09 06:13:53;;;;;;;1.10;1.00;;;22.00;61.00;;;;;;4956069;28;20174;-72
2022/07/09 06:16:19;;;;;;;0.90;0.90;;;22.00;60.90;;;;;;4957128;28;20190;-72
2022/07/09 06:18:44;;;;;;;0.95;0.95;;;22.00;61.00;;;;;;4971738;28;20186;-72
2022/07/09 06:21:10;;;;;;;1.20;1.10;;;22.00;61.00;;;;;;4949363;28;20207;-72
2022/07/09 06:23:36;;;;;;;1.15;1.10;;;22.00;61.00;;;;;;4936620;29;20214;-72
2022/07/09 06:26:02;;;;;;;1.30;1.20;;;22.00;61.00;;;;;;4946511;29;20241;-72
2022/07/09 06:28:28;;;;;;;1.27;1.10;;;22.00;61.00;;;;;;4971892;28;20187;-72
2022/07/09 06:30:53;;;;;;;1.17;1.13;;;22.00;61.00;;;;;;4957999;28;20210;-72
2022/07/09 06:33:19;;;;;;;1.30;1.20;;;22.00;61.00;;;;;;4939195;29;20210;-72
2022/07/09 06:35:45;;;;;;;1.27;1.17;;;22.00;61.00;;;;;;4955370;28;20194;-72
2022/07/09 06:38:10;;;;;;;0.80;0.80;;;22.00;61.10;;;;;;4955520;28;20193;-72
2022/07/09 06:40:36;;;;;;;1.17;1.08;;;22.00;61.00;;;;;;4955489;28;20564;-72
2022/07/09 06:43:03;;;;;;;1.05;1.02;;;22.00;61.10;;;;;;4971070;28;20213;-72
2022/07/09 06:45:34;;;;;;;1.20;1.10;;;22.00;61.10;;;;;;4955438;28;20651;-72
2022/07/09 06:47:59;;;;;;;1.00;1.00;;;22.00;61.10;;;;;;4971477;28;20190;-72
2022/07/09 06:50:25;;;;;;;1.40;1.30;;;22.00;61.10;;;;;;4970870;28;20297;-72
2022/07/09 06:52:51;;;;;;;1.23;1.13;;;22.00;61.10;;;;;;4938779;29;20245;-72
2022/07/09 06:55:17;;;;;;;0.90;0.90;;;22.00;61.10;;;;;;4971603;28;20191;-72
2022/07/09 06:57:42;;;;;;;1.20;1.10;;;22.00;61.10;;;;;;4950621;29;20216;-72
2022/07/09 07:00:09;;;;;;;1.05;0.95;;;22.00;61.10;;;;;;4951979;28;20221;-72
2022/07/09 07:02:35;;;;;;;1.20;1.10;;;22.10;61.30;;;;;;4943067;28;20231;-72
2022/07/09 07:05:01;;;;;;;1.23;1.13;;;22.10;61.20;;;;;;4947044;29;20191;-72
2022/07/09 07:07:27;;;;;;;1.17;1.08;;;22.00;61.10;;;;;;4954725;28;20190;-72
2022/07/09 07:09:52;;;;;;;1.05;0.93;;;22.10;61.30;;;;;;4940817;29;20218;-72
2022/07/09 07:12:18;;;;;;;0.98;0.98;;;22.10;61.20;;;;;;4919573;29;20210;-72
2022/07/09 07:14:44;;;;;;;1.05;0.95;;;22.00;61.00;;;;;;4935909;29;20187;-72
2022/07/09 07:17:10;;;;;;;1.63;1.13;;;22.10;61.10;;;;;;4954819;29;20208;-72
2022/07/09 07:19:36;;;;;;;0.90;0.90;;;22.10;61.20;;;;;;4954556;29;20210;-72
2022/07/09 07:22:01;;;;;;;1.23;0.90;;;22.00;61.00;;;;;;4943077;28;20199;-72
2022/07/09 07:24:27;;;;;;;1.00;1.00;;;22.10;61.10;;;;;;4951576;28;20193;-72
2022/07/09 07:26:54;;;;;;;1.05;1.00;;;22.10;61.10;;;;;;4936584;29;20193;-72
2022/07/09 07:29:20;;;;;;;1.30;1.20;;;22.00;61.00;;;;;;4935873;29;20274;-71
2022/07/09 07:31:46;;;;;;;0.90;0.90;;;22.10;61.20;;;;;;4936260;28;20226;-72
2022/07/09 07:34:12;;;;;;;0.93;0.93;;;22.10;61.20;;;;;;4935421;28;20198;-72
2022/07/09 07:36:38;;;;;;;1.13;1.02;;;22.10;61.20;;;;;;4935611;28;20179;-72
2022/07/09 07:39:04;;;;;;;1.48;1.20;;;22.10;61.10;;;;;;4935445;29;20207;-72
2022/07/09 07:41:30;;;;;;;2.00;0.98;;;22.10;61.10;;;;;;4950679;28;20226;-72
2022/07/09 07:43:56;;;;;;;1.13;0.95;;;22.10;61.00;;;;;;4951339;28;20183;-73
2022/07/09 07:46:21;;;;;;;1.48;1.38;;;22.10;61.00;;;;;;4951411;28;20255;-72
2022/07/09 07:48:47;;;;;;;0.82;0.82;;;22.10;61.00;;;;;;4935146;29;20195;-72
2022/07/09 07:51:13;;;;;;;1.20;1.10;;;22.20;61.00;;;;;;4950502;28;20207;-72
2022/07/09 07:53:39;;;;;;;1.25;1.15;;;22.20;61.00;;;;;;4951734;28;20222;-72
2022/07/09 07:56:06;;;;;;;1.40;1.30;;;22.20;61.00;;;;;;4919730;29;20194;-72
2022/07/09 07:58:33;;;;;;;1.38;1.27;;;22.20;61.00;;;;;;4935446;28;20258;-72
2022/07/09 08:00:59;;;;;;;2.38;1.45;;;22.20;61.00;;;;;;4935244;29;20270;-72
2022/07/09 08:03:25;;;;;;;0.98;0.90;;;22.20;61.00;;;;;;4934512;29;20207;-72
2022/07/09 08:05:51;;;;;;;1.67;1.10;;;22.20;60.90;;;;;;4935157;29;20195;-72
2022/07/09 08:08:18;;;;;;;1.88;1.10;;;22.20;60.70;;;;;;4951535;28;20253;-72
2022/07/09 08:10:45;;;;;;;1.63;1.38;;;22.20;60.80;;;;;;4935767;28;20219;-72
2022/07/09 08:13:12;;;;;;;2.53;1.40;;;22.20;60.80;;;;;;4936023;28;20207;-72
2022/07/09 08:15:38;;;;;;;1.42;1.20;;;22.20;61.00;;;;;;4921988;29;20199;-72
2022/07/09 08:18:05;;;;;;;1.85;1.40;;;22.20;60.90;;;;;;4923937;28;20191;-72
2022/07/09 08:20:31;;;;;;;1.08;0.95;;;22.20;61.00;;;;;;4937043;28;20207;-73
2022/07/09 08:22:56;;;;;;;1.55;1.00;;;22.20;60.90;;;;;;4949854;29;20186;-72
2022/07/09 08:25:22;;;;;;;1.27;1.17;;;22.20;61.00;;;;;;4934715;28;20227;-72
2022/07/09 08:27:49;;;;;;;1.67;1.33;;;22.20;61.00;;;;;;4937169;29;20198;-72
2022/07/09 08:30:15;;;;;;;2.00;1.48;;;22.20;61.00;;;;;;4934691;28;20214;-72
2022/07/09 08:32:41;;;;;;;2.47;1.20;;;22.20;61.00;;;;;;4933542;29;20254;-72
2022/07/09 08:35:07;;;;;;;2.78;1.30;;;22.30;61.10;;;;;;4935599;29;20211;-72
2022/07/09 08:37:33;;;;;;;1.23;1.10;;;22.20;61.00;;;;;;4950539;28;20217;-72
2022/07/09 08:40:06;;;;;;;1.27;0.93;;;22.30;61.00;;;;;;4949967;28;20207;-72
2022/07/09 08:42:31;;;;;;;1.35;1.10;;;22.30;61.10;;;;;;4933793;29;20250;-72
2022/07/09 08:44:58;;;;;;;1.30;1.08;;;22.30;61.10;;;;;;4934415;28;20194;-72
2022/07/09 08:47:25;;;;;;;1.70;0.98;;;22.20;61.00;;;;;;4950230;29;20250;-72
2022/07/09 08:49:56;;;;;;;1.85;1.65;;;22.30;60.90;;;;;;4934082;29;20211;-72
2022/07/09 08:52:24;;;;;;;1.23;1.13;;;22.30;60.80;;;;;;4933667;28;20262;-72
2022/07/09 08:54:53;;;;;;;1.10;1.00;;;22.30;60.80;;;;;;4934227;29;20198;-72
2022/07/09 08:57:18;;;;;;;1.70;1.08;;;22.30;60.90;;;;;;4934272;29;20198;-72
2022/07/09 08:59:44;;;;;;;1.42;1.33;;;22.30;60.90;;;;;;4918449;29;20203;-72
2022/07/09 09:02:12;;;;;;;1.20;1.10;;;22.30;61.00;;;;;;4933593;28;20187;-72
2022/07/09 09:04:40;;;;;;;1.25;1.10;;;22.30;61.00;;;;;;4962390;28;20195;-72
2022/07/09 09:07:18;;;;;;;1.20;1.10;;;22.30;61.10;;;;;;4966190;28;20196;-72
2022/07/09 09:09:45;;;;;;;1.85;1.00;;;22.30;61.10;;;;;;4935202;29;20187;-72
2022/07/09 09:12:12;;;;;;;1.10;1.00;;;22.30;61.00;;;;;;4934653;29;20290;-72
2022/07/09 09:14:39;;;;;;;1.70;1.02;;;22.30;61.10;;;;;;4935332;29;20179;-72
2022/07/09 09:17:09;;;;;;;0.88;0.88;;;22.30;61.10;;;;;;4933787;29;20211;-72
2022/07/09 09:19:35;;;;;;;1.35;1.02;;;22.30;61.10;;;;;;4935012;29;20541;-72
2022/07/09 09:22:02;;;;;;;2.55;1.40;;;22.30;61.00;;;;;;4949500;28;20573;-72
2022/07/09 09:24:31;;;;;;;1.42;0.98;;;22.30;60.90;;;;;;4934190;29;20636;-72
2022/07/09 09:26:58;;;;;;;1.63;1.10;;;22.30;60.90;;;;;;4934141;29;20270;-72
2022/07/09 09:29:24;;;;;;;1.35;1.20;;;22.30;60.90;;;;;;4934119;29;20195;-72
2022/07/09 09:31:50;;;;;;;2.28;1.40;;;22.30;61.00;;;;;;4933247;29;20270;-72
2022/07/09 09:34:19;;;;;;;1.13;0.90;;;22.30;61.00;;;;;;4950045;29;20623;-72
2022/07/09 09:36:54;;;;;;;1.75;1.15;;;22.30;61.10;;;;;;4949775;29;20243;-72
2022/07/09 09:39:24;;;;;;;1.20;1.10;;;22.40;61.00;;;;;;4949904;28;20198;-72
2022/07/09 09:41:53;;;;;;;2.38;1.02;;;22.40;61.00;;;;;;4949398;28;20234;-72
2022/07/09 09:44:26;;;;;;;1.00;0.90;;;22.30;61.00;;;;;;4934663;29;20199;-72
2022/07/09 09:46:54;;;;;;;1.63;0.95;;;22.30;61.00;;;;;;4937396;29;20187;-72
2022/07/09 09:49:20;;;;;;;1.70;0.88;;;22.40;61.00;;;;;;4937190;28;20183;-72
2022/07/09 09:51:56;;;;;;;0.93;0.85;;;22.40;61.10;;;;;;4968930;28;20711;-72
2022/07/09 09:54:22;;;;;;;0.90;0.90;;;22.40;61.10;;;;;;4938615;29;20177;-72
2022/07/09 09:56:54;;;;;;;1.08;1.00;;;22.40;61.10;;;;;;4969488;28;20601;-72
2022/07/09 09:59:20;;;;;;;1.17;0.93;;;22.40;61.00;;;;;;4937586;29;20195;-72
2022/07/09 10:01:46;;;;;;;1.58;1.00;;;22.40;61.00;;;;;;4936600;29;20226;-72
2022/07/09 10:04:14;;;;;;;1.17;0.90;;;22.40;61.00;;;;;;4937132;29;20274;-72
2022/07/09 10:06:41;;;;;;;1.00;0.90;;;22.40;61.00;;;;;;4952926;28;20179;-72
2022/07/09 10:09:11;;;;;;;1.20;1.10;;;22.40;61.00;;;;;;4938146;29;20184;-72
2022/07/09 10:11:48;;;;;;;1.48;1.17;;;22.40;60.80;;;;;;4968495;28;20222;-72
2022/07/09 10:14:23;;;;;;;0.95;0.85;;;22.40;61.30;;;;;;4937971;29;20179;-72
2022/07/09 10:16:51;;;;;;;1.98;1.10;;;22.40;61.10;;;;;;4969326;28;20191;-71
2022/07/09 10:19:29;;;;;;;1.42;1.00;;;22.40;61.00;;;;;;4936728;28;20183;-72
2022/07/09 10:21:58;;;;;;;2.78;0.90;;;22.40;61.30;;;;;;4936376;29;20190;-72
2022/07/09 10:24:27;;;;;;;1.10;1.00;;;22.40;61.10;;;;;;4920881;29;20195;-72
2022/07/09 10:27:05;;;;;;;1.20;1.08;;;22.40;61.20;;;;;;4936629;29;20190;-72
2022/07/09 10:29:33;;;;;;;3.15;1.15;;;22.40;61.30;;;;;;4952599;28;20179;-71
2022/07/09 10:32:01;;;;;;;1.30;0.88;;;22.40;61.20;;;;;;4935940;29;20215;-72
2022/07/09 10:34:55;;;;;;;1.90;1.20;;;22.40;61.30;;;;;;4936584;29;20235;-72
2022/07/09 10:37:53;;;;;;;1.15;1.05;;;22.40;61.30;;;;;;4968624;28;20183;-72
2022/07/09 10:40:22;;;;;;;1.83;1.10;;;22.40;61.40;;;;;;4939890;29;20219;-72
2022/07/09 10:43:00;;;;;;;1.95;1.00;;;22.40;61.50;;;;;;4967833;28;20187;-72
2022/07/09 10:45:37;;;;;;;1.15;0.93;;;22.40;61.40;;;;;;4955608;28;20186;-72
2022/07/09 10:48:06;;;;;;;2.20;1.20;;;22.40;61.30;;;;;;4956829;28;20245;-72
2022/07/09 10:50:39;;;;;;;3.60;1.20;;;22.40;61.50;;;;;;4955236;28;20202;-72
2022/07/09 10:53:05;;;;;;;2.10;0.98;;;22.50;61.50;;;;;;4953079;28;20199;-72
2022/07/09 10:55:32;;;;;;;1.73;0.95;;;22.40;61.20;;;;;;4935228;28;20187;-73
2022/07/09 10:57:58;;;;;;;1.83;0.82;;;22.40;61.20;;;;;;4935837;29;20191;-72
2022/07/09 11:00:30;;;;;;;1.00;0.90;;;22.40;61.20;;;;;;4936766;29;20215;-72
2022/07/09 11:03:05;;;;;;;2.50;1.40;;;22.50;61.30;;;;;;4954532;28;20252;-72
2022/07/09 11:05:43;;;;;;;0.90;0.90;;;22.50;61.30;;;;;;4954320;28;20217;-72
2022/07/09 11:08:09;;;;;;;1.15;0.90;;;22.40;61.30;;;;;;4954923;28;20226;-72
2022/07/09 11:10:38;;;;;;;2.08;1.00;;;22.40;61.10;;;;;;4945488;28;20219;-72
2022/07/09 11:13:06;;;;;;;2.17;0.98;;;22.40;61.20;;;;;;4950026;28;20246;-72
2022/07/09 11:15:35;;;;;;;1.58;1.15;;;22.50;61.30;;;;;;4950885;29;20190;-73
2022/07/09 11:18:10;;;;;;;1.20;1.10;;;22.40;61.60;;;;;;4954330;28;20198;-72
2022/07/09 11:20:47;;;;;;;1.55;0.90;;;22.40;61.30;;;;;;4960869;28;20209;-72
2022/07/09 11:23:16;;;;;;;1.00;0.90;;;22.50;61.60;;;;;;4938098;29;20191;-73
2022/07/09 11:25:44;;;;;;;1.38;0.85;;;22.50;62.30;;;;;;4948040;28;20202;-73
2022/07/09 11:28:20;;;;;;;2.42;0.93;;;22.50;61.50;;;;;;4941109;28;20187;-73
2022/07/09 11:30:57;;;;;;;1.48;0.90;;;22.50;61.30;;;;;;4934025;29;20211;-72
2022/07/09 11:33:24;;;;;;;1.20;1.10;;;22.50;61.40;;;;;;4934520;29;20717;-72
2022/07/09 11:35:50;;;;;;;2.30;1.08;;;22.50;62.20;;;;;;4952129;29;20226;-72
2022/07/09 11:38:15;;;;;;;1.10;1.00;;;22.50;61.40;;;;;;4952552;28;20206;-72
2022/07/09 11:40:41;;;;;;;1.17;1.05;;;22.50;61.20;;;;;;4948659;28;20284;-73
2022/07/09 11:43:15;;;;;;;0.90;0.90;;;22.50;61.10;;;;;;4951133;28;20193;-72
2022/07/09 11:45:53;;;;;;;1.17;0.80;;;22.50;61.90;;;;;;4928161;28;20656;-72
2022/07/09 11:48:18;;;;;;;2.30;0.90;;;22.50;61.30;;;;;;4947202;29;20677;-72
2022/07/09 11:50:45;;;;;;;2.00;1.05;;;22.50;61.10;;;;;;4952211;29;20206;-72
2022/07/09 11:53:22;;;;;;;1.70;1.10;;;22.50;61.30;;;;;;4953672;28;20210;-72
2022/07/09 11:56:03;;;;;;;1.58;0.98;;;22.50;61.30;;;;;;4938196;28;20195;-72
2022/07/09 11:58:30;;;;;;;1.00;1.00;;;22.50;61.30;;;;;;4934860;28;20234;-72
2022/07/09 12:00:59;;;;;;;0.85;0.80;;;22.50;61.20;;;;;;4946928;28;20222;-73
2022/07/09 12:03:27;;;;;;;1.65;0.90;;;22.50;61.20;;;;;;4953282;29;20628;-73
2022/07/09 12:05:54;;;;;;;1.98;1.00;;;22.50;61.10;;;;;;4946140;28;20190;-73
2022/07/09 12:08:31;;;;;;;1.02;0.90;;;22.50;61.20;;;;;;4941580;28;20187;-73
2022/07/09 12:10:58;;;;;;;0.90;0.90;;;22.50;61.40;;;;;;4951959;29;20272;-74
2022/07/09 12:13:25;;;;;;;0.80;0.80;;;22.50;61.30;;;;;;4968792;28;20218;-73
2022/07/09 12:15:50;;;;;;;0.85;0.85;;;22.50;61.10;;;;;;4950484;28;20187;-73
2022/07/09 12:18:16;;;;;;;2.58;1.20;;;22.50;61.30;;;;;;4967633;28;20182;-71
2022/07/09 12:20:42;;;;;;;1.52;1.00;;;22.50;61.20;;;;;;4944250;28;20206;-73
2022/07/09 12:23:08;;;;;;;1.10;0.82;;;22.60;61.30;;;;;;4947690;28;20723;-73
2022/07/09 12:25:34;;;;;;;1.35;1.00;;;22.50;61.20;;;;;;4934076;28;20218;-73
2022/07/09 12:28:00;;;;;;;0.95;0.90;;;22.60;61.40;;;;;;4934377;29;20269;-73
2022/07/09 12:30:25;;;;;;;0.85;0.85;;;22.50;61.30;;;;;;4934477;29;20230;-72
2022/07/09 12:32:51;;;;;;;0.90;0.90;;;22.50;61.20;;;;;;4936919;29;20211;-73
2022/07/09 12:35:17;;;;;;;1.58;1.10;;;22.50;61.60;;;;;;4947247;29;20182;-72
2022/07/09 12:37:43;;;;;;;0.90;0.90;;;22.50;61.30;;;;;;4939537;28;20245;-72
2022/07/09 12:40:11;;;;;;;0.93;0.90;;;22.50;61.40;;;;;;4937109;28;20363;-72
2022/07/09 12:42:38;;;;;;;1.27;0.85;;;22.60;61.50;;;;;;4968688;28;20194;-73
2022/07/09 12:45:05;;;;;;;1.15;0.82;;;22.50;61.50;;;;;;4961687;28;20638;-72
2022/07/09 12:47:31;;;;;;;1.15;0.80;;;22.60;61.50;;;;;;4946524;28;20223;-72